Terminal Aerodrome Forecast
Issued by NWS Bismarck, ND

Home | Current Version | Previous Version | Graphics & Text | Print | Product List | Glossary On
Versions: 1 2 3 4 5 6 7 8 9 10 11 12 13 14 15 16 17 18 19 20 21 22 23 24
000
FTUS43 KBIS 240800 AAA
TAFISN
TAF AMD
KISN 240805Z 2408/2506 19003KT 2SM BR SCT001
      TEMPO 2408/2410 3/4SM BR OVC001
     FM241000 18004KT P6SM BKN100 OVC250
     FM241500 21007KT P6SM BKN040 OVC080
     FM250000 34008KT P6SM BKN020 OVC040=

USA.gov is the U.S. government's official web portal to all federal, state and local government web resources and services.